createdAt,value
2022-11-29T00:01:21.231Z,16.83
2022-11-29T00:04:10.151Z,19.60
2022-11-29T00:07:02.244Z,19.40
2022-11-29T00:09:54.508Z,17.00
2022-11-29T00:12:45.566Z,19.77
2022-11-29T00:15:40.542Z,17.33
2022-11-29T00:18:34.597Z,19.97
2022-11-29T00:21:26.075Z,19.60
2022-11-29T00:24:16.315Z,19.40
2022-11-29T00:27:05.053Z,20.00
2022-11-29T00:29:56.074Z,19.93
2022-11-29T00:32:49.039Z,18.80
2022-11-29T00:35:40.574Z,19.40
2022-11-29T00:38:31.174Z,19.53
2022-11-29T00:41:19.790Z,20.80
2022-11-29T00:44:14.054Z,19.30
2022-11-29T00:47:10.815Z,19.37
2022-11-29T00:50:00.519Z,20.80
2022-11-29T00:52:49.506Z,22.30
2022-11-29T00:55:38.071Z,21.27
2022-11-29T00:58:42.401Z,19.70
2022-11-29T01:01:33.052Z,21.40
2022-11-29T01:04:26.706Z,21.50
2022-11-29T01:07:15.355Z,20.37
2022-11-29T01:10:03.955Z,20.70
2022-11-29T01:12:56.407Z,22.70
2022-11-29T01:15:53.970Z,21.13
2022-11-29T01:18:43.812Z,21.97
2022-11-29T01:21:39.128Z,21.83
2022-11-29T01:24:29.737Z,21.00
2022-11-29T01:27:27.658Z,20.50
2022-11-29T01:30:21.355Z,21.00
2022-11-29T01:33:09.889Z,21.10
2022-11-29T01:36:02.841Z,20.77
2022-11-29T01:38:53.120Z,21.60
2022-11-29T01:41:44.643Z,20.80
2022-11-29T01:44:51.120Z,21.53
2022-11-29T01:47:41.363Z,20.83
2022-11-29T01:50:29.907Z,22.43
2022-11-29T01:53:18.590Z,21.87
2022-11-29T01:56:09.501Z,22.67
2022-11-29T01:59:00.699Z,22.00
2022-11-29T02:01:51.388Z,22.23
2022-11-29T02:04:46.927Z,22.10
2022-11-29T02:07:45.495Z,21.47
2022-11-29T02:10:41.348Z,23.30
2022-11-29T02:13:36.252Z,21.67
2022-11-29T02:16:28.907Z,22.10
2022-11-29T02:19:30.993Z,21.73
2022-11-29T02:22:23.315Z,22.03
2022-11-29T02:25:23.931Z,23.13
2022-11-29T02:28:28.251Z,23.10
2022-11-29T02:31:53.398Z,23.53
2022-11-29T02:34:53.913Z,21.53
2022-11-29T02:37:52.567Z,22.27
2022-11-29T02:41:07.678Z,23.30
2022-11-29T02:44:18.534Z,22.83
2022-11-29T02:47:16.709Z,22.80
2022-11-29T02:50:15.494Z,22.30
2022-11-29T02:53:08.059Z,23.37
2022-11-29T02:55:58.927Z,23.00
2022-11-29T02:58:52.161Z,24.77
2022-11-29T03:01:43.823Z,23.97
2022-11-29T03:04:46.712Z,23.00
2022-11-29T03:07:40.789Z,24.03
2022-11-29T03:10:37.911Z,22.70
2022-11-29T03:13:35.483Z,22.47
2022-11-29T03:16:43.642Z,23.50
2022-11-29T03:19:54.599Z,24.00
2022-11-29T03:22:49.599Z,22.70
2022-11-29T03:25:48.811Z,22.70
2022-11-29T03:28:43.389Z,22.07
2022-11-29T03:31:35.860Z,24.60
2022-11-29T03:34:34.458Z,23.33
2022-11-29T03:37:25.223Z,25.17
2022-11-29T03:40:18.605Z,23.73
2022-11-29T03:43:13.563Z,25.00
2022-11-29T03:46:04.372Z,25.40
2022-11-29T03:48:59.158Z,24.43
2022-11-29T03:52:01.921Z,24.50
2022-11-29T03:55:08.612Z,24.67
2022-11-29T03:58:06.367Z,23.77
2022-11-29T04:01:08.712Z,24.10
2022-11-29T04:04:17.296Z,24.70
2022-11-29T04:07:09.499Z,24.00
2022-11-29T04:10:06.413Z,24.80
2022-11-29T04:13:12.503Z,24.20
2022-11-29T04:16:19.939Z,24.73
2022-11-29T04:19:28.105Z,25.03
2022-11-29T04:22:29.527Z,24.87
2022-11-29T04:25:38.164Z,26.40
2022-11-29T04:28:45.809Z,25.47
2022-11-29T04:31:57.899Z,25.77
2022-11-29T04:34:58.887Z,24.30
2022-11-29T04:38:05.900Z,24.07
2022-11-29T04:41:19.693Z,24.80
2022-11-29T04:44:21.577Z,23.63
2022-11-29T04:47:28.218Z,24.90
2022-11-29T04:50:28.489Z,25.23
2022-11-29T04:53:33.026Z,25.13
2022-11-29T04:56:28.453Z,23.73
2022-11-29T04:59:29.448Z,25.37
2022-11-29T05:02:31.207Z,24.70
2022-11-29T05:05:25.545Z,26.83
2022-11-29T05:08:21.923Z,26.37
2022-11-29T05:11:26.263Z,24.17
2022-11-29T05:14:21.680Z,25.97
2022-11-29T05:17:26.531Z,26.30
2022-11-29T05:20:24.729Z,26.17
2022-11-29T05:23:23.539Z,24.70
2022-11-29T05:26:16.622Z,26.10
2022-11-29T05:29:10.339Z,24.63
2022-11-29T05:32:11.702Z,25.10
2022-11-29T05:35:08.729Z,28.20
2022-11-29T05:38:06.909Z,25.87
2022-11-29T05:41:07.197Z,27.50
2022-11-29T05:44:07.465Z,25.70
2022-11-29T05:46:59.914Z,26.20
2022-11-29T05:49:57.219Z,26.20
2022-11-29T05:52:51.262Z,27.47
2022-11-29T05:55:49.384Z,26.60
2022-11-29T05:58:44.781Z,27.17
2022-11-29T06:01:39.428Z,28.47
2022-11-29T06:04:31.193Z,27.40
2022-11-29T06:07:21.564Z,26.80
2022-11-29T06:10:13.219Z,27.97
2022-11-29T06:13:13.328Z,26.67
2022-11-29T06:16:10.044Z,26.90
2022-11-29T06:19:22.648Z,26.80
2022-11-29T06:22:26.706Z,26.60
2022-11-29T06:25:23.926Z,28.30
2022-11-29T06:28:30.136Z,26.43
2022-11-29T06:31:25.898Z,26.43
2022-11-29T06:34:18.909Z,27.23
2022-11-29T06:37:12.843Z,28.43
2022-11-29T06:40:01.607Z,26.77
2022-11-29T06:42:51.268Z,28.47
2022-11-29T06:45:40.903Z,28.20
2022-11-29T06:48:34.759Z,28.20
2022-11-29T06:51:29.895Z,27.43
2022-11-29T06:54:24.483Z,27.37
2022-11-29T06:57:21.582Z,28.03
2022-11-29T07:00:21.555Z,30.17
2022-11-29T07:03:34.102Z,28.07
2022-11-29T07:06:25.555Z,29.20
2022-11-29T07:09:18.089Z,28.50
2022-11-29T07:12:12.988Z,28.27
2022-11-29T07:15:07.695Z,27.60
2022-11-29T07:18:06.842Z,29.30
2022-11-29T07:20:59.409Z,27.50
2022-11-29T07:23:59.589Z,27.70
2022-11-29T07:26:59.305Z,28.30
2022-11-29T07:30:00.808Z,27.30
2022-11-29T07:33:02.465Z,29.27
2022-11-29T07:35:59.609Z,29.03
2022-11-29T07:39:01.799Z,27.10
2022-11-29T07:41:54.917Z,28.07
2022-11-29T07:44:49.200Z,27.63
2022-11-29T07:47:40.571Z,28.60
2022-11-29T07:50:36.527Z,27.13
2022-11-29T07:53:30.218Z,28.30
2022-11-29T07:56:24.532Z,28.43
2022-11-29T07:59:23.448Z,29.00
2022-11-29T08:02:16.959Z,28.70
2022-11-29T08:05:08.570Z,28.87
2022-11-29T08:08:02.369Z,27.43
2022-11-29T08:10:54.809Z,28.13
2022-11-29T08:13:51.259Z,29.13
2022-11-29T08:16:39.825Z,28.37
2022-11-29T08:19:38.715Z,27.37
2022-11-29T08:22:33.539Z,30.27
2022-11-29T08:25:25.135Z,27.50
2022-11-29T08:28:13.782Z,28.70
2022-11-29T08:31:13.210Z,27.63
2022-11-29T08:34:09.129Z,28.03
2022-11-29T08:36:58.939Z,27.97
2022-11-29T08:39:51.663Z,28.03
2022-11-29T08:42:44.419Z,29.13
2022-11-29T08:45:39.121Z,28.20
2022-11-29T08:48:39.228Z,28.40
2022-11-29T08:51:32.205Z,28.20
2022-11-29T08:54:21.732Z,29.07
2022-11-29T08:57:39.276Z,29.67
2022-11-29T09:00:24.104Z,28.70
2022-11-29T09:03:31.591Z,29.50
2022-11-29T09:06:23.266Z,28.80
2022-11-29T09:09:15.218Z,28.83
2022-11-29T09:12:07.397Z,26.67
2022-11-29T09:15:03.331Z,29.60
2022-11-29T09:17:53.807Z,28.07
2022-11-29T09:20:51.495Z,28.83
2022-11-29T09:23:42.271Z,29.17
2022-11-29T09:26:31.832Z,28.60
2022-11-29T09:29:21.719Z,28.30
2022-11-29T09:32:15.941Z,29.23
2022-11-29T09:35:04.552Z,28.73
2022-11-29T09:37:53.097Z,29.30
2022-11-29T09:40:51.663Z,29.67
2022-11-29T09:43:44.642Z,29.13
2022-11-29T09:46:40.550Z,30.20
2022-11-29T09:49:36.549Z,28.67
2022-11-29T09:52:35.426Z,28.37
2022-11-29T09:55:37.869Z,29.37
2022-11-29T09:58:31.702Z,29.27
2022-11-29T10:01:22.525Z,28.87
2022-11-29T10:04:16.257Z,28.07
2022-11-29T10:07:07.132Z,29.90
2022-11-29T10:09:58.154Z,28.60
2022-11-29T10:12:53.706Z,30.23
2022-11-29T10:15:45.668Z,30.23
2022-11-29T10:18:38.758Z,29.37
2022-11-29T10:21:30.430Z,30.20
2022-11-29T10:24:20.601Z,29.80
2022-11-29T10:27:12.631Z,29.17
2022-11-29T10:30:04.986Z,28.70
2022-11-29T10:32:59.084Z,28.70
2022-11-29T10:35:53.959Z,29.83
2022-11-29T10:38:44.110Z,29.30
2022-11-29T10:41:37.013Z,28.50
2022-11-29T10:44:28.222Z,30.00
2022-11-29T10:47:16.827Z,29.33
2022-11-29T10:50:09.376Z,28.00
2022-11-29T10:53:00.717Z,29.23
2022-11-29T10:55:53.132Z,29.17
2022-11-29T10:58:54.964Z,30.37
2022-11-29T11:01:46.993Z,28.53
2022-11-29T11:04:39.859Z,28.07
2022-11-29T11:07:41.791Z,31.63
2022-11-29T11:10:33.040Z,29.73
2022-11-29T11:13:26.336Z,29.03
2022-11-29T11:16:20.812Z,28.80
2022-11-29T11:19:39.328Z,30.50
2022-11-29T11:22:30.599Z,29.57
2022-11-29T11:25:33.200Z,28.40
2022-11-29T11:28:24.788Z,28.70
2022-11-29T11:31:20.607Z,29.37
2022-11-29T11:34:33.395Z,29.87
2022-11-29T11:37:28.284Z,28.33
2022-11-29T11:40:29.387Z,29.80
2022-11-29T11:43:26.614Z,29.33
2022-11-29T11:46:20.589Z,28.70
2022-11-29T11:49:16.553Z,28.97
2022-11-29T11:52:06.530Z,30.10
2022-11-29T11:55:02.202Z,30.90
2022-11-29T11:57:59.075Z,29.97
2022-11-29T12:01:06.551Z,31.10
2022-11-29T12:03:58.818Z,29.57
2022-11-29T12:06:52.765Z,28.97
2022-11-29T12:09:43.536Z,29.20
2022-11-29T12:12:33.433Z,30.30
2022-11-29T12:15:23.732Z,28.93
2022-11-29T12:18:21.918Z,30.93
2022-11-29T12:21:17.575Z,29.80
2022-11-29T12:24:13.248Z,31.70
2022-11-29T12:27:05.493Z,29.30
2022-11-29T12:29:55.071Z,30.77
2022-11-29T12:33:05.972Z,30.73
2022-11-29T12:36:04.946Z,31.53
2022-11-29T12:39:04.483Z,31.00
2022-11-29T12:42:00.102Z,31.77
2022-11-29T12:44:52.759Z,30.70
2022-11-29T12:47:51.935Z,31.67
2022-11-29T12:50:47.675Z,30.93
2022-11-29T12:53:54.435Z,30.97
2022-11-29T12:56:49.435Z,31.10
2022-11-29T12:59:47.419Z,32.10
2022-11-29T13:02:45.306Z,29.87
2022-11-29T13:05:41.062Z,32.23
2022-11-29T13:08:46.676Z,30.03
2022-11-29T13:11:37.979Z,30.40
2022-11-29T13:14:44.168Z,31.50
2022-11-29T13:17:37.918Z,32.00
2022-11-29T13:20:37.655Z,30.20
2022-11-29T13:24:07.238Z,31.03
2022-11-29T13:26:55.460Z,30.63
2022-11-29T13:29:48.449Z,33.40
2022-11-29T13:32:39.103Z,31.90
2022-11-29T13:35:32.641Z,31.80
2022-11-29T13:38:29.754Z,32.90
2022-11-29T13:41:28.544Z,28.73
2022-11-29T13:44:24.555Z,31.20
2022-11-29T13:47:18.550Z,32.80
2022-11-29T13:50:15.610Z,30.20
2022-11-29T13:53:04.800Z,29.53
2022-11-29T13:56:01.910Z,33.07
2022-11-29T13:58:54.980Z,31.17
2022-11-29T14:02:03.239Z,29.80
2022-11-29T14:04:58.393Z,32.37
2022-11-29T14:08:03.879Z,32.57
2022-11-29T14:10:55.151Z,28.57
2022-11-29T14:13:57.086Z,32.67
2022-11-29T14:16:49.946Z,31.67
2022-11-29T14:19:40.156Z,31.97
2022-11-29T14:22:43.354Z,32.47
2022-11-29T14:25:58.827Z,32.40
2022-11-29T14:28:53.028Z,30.07
2022-11-29T14:31:53.598Z,30.90
2022-11-29T14:34:50.952Z,33.50
2022-11-29T14:38:03.283Z,32.17
2022-11-29T14:40:57.536Z,33.80
2022-11-29T14:43:48.132Z,32.50
2022-11-29T14:46:41.285Z,31.57
2022-11-29T14:49:35.432Z,31.13
2022-11-29T14:52:37.074Z,32.43
2022-11-29T14:55:45.261Z,31.73
2022-11-29T14:58:38.156Z,32.07
2022-11-29T15:01:32.556Z,32.70
2022-11-29T15:04:27.067Z,33.20
2022-11-29T15:07:20.930Z,32.77
2022-11-29T15:10:17.377Z,33.03
2022-11-29T15:13:15.620Z,31.27
2022-11-29T15:16:14.196Z,34.13
2022-11-29T15:19:28.012Z,33.03
2022-11-29T15:22:23.489Z,32.10
2022-11-29T15:25:15.370Z,32.43
2022-11-29T15:28:08.894Z,33.60
2022-11-29T15:31:05.851Z,33.47
2022-11-29T15:33:54.481Z,32.77
2022-11-29T15:36:44.820Z,34.67
2022-11-29T15:39:36.053Z,33.50
2022-11-29T15:42:32.466Z,34.80
2022-11-29T15:45:28.406Z,31.00
2022-11-29T15:48:22.716Z,33.80
2022-11-29T15:51:18.727Z,32.80
2022-11-29T15:54:13.912Z,32.23
2022-11-29T15:57:05.263Z,33.70
2022-11-29T16:00:05.576Z,33.20
2022-11-29T16:02:58.733Z,32.70
2022-11-29T16:05:51.851Z,33.40
2022-11-29T16:08:43.300Z,33.50
2022-11-29T16:11:37.207Z,32.93
2022-11-29T16:14:28.494Z,32.83
2022-11-29T16:17:17.109Z,31.20
2022-11-29T16:20:23.402Z,32.13
2022-11-29T16:23:16.545Z,31.50
2022-11-29T16:26:11.834Z,33.67
2022-11-29T16:29:01.627Z,33.80
2022-11-29T16:31:56.276Z,32.43
2022-11-29T16:34:55.737Z,31.57
2022-11-29T16:37:46.328Z,33.67
2022-11-29T16:40:36.767Z,33.13
2022-11-29T16:43:46.726Z,33.60
2022-11-29T16:46:37.744Z,32.90
2022-11-29T16:49:38.158Z,32.30
2022-11-29T16:52:32.076Z,32.27
2022-11-29T16:55:31.467Z,33.00
2022-11-29T16:58:24.461Z,33.13
2022-11-29T17:01:29.701Z,33.43
2022-11-29T17:04:24.483Z,32.20
2022-11-29T17:07:25.579Z,33.37
2022-11-29T17:10:17.795Z,33.50
2022-11-29T17:13:06.373Z,31.27
2022-11-29T17:16:05.944Z,31.50
2022-11-29T17:19:08.512Z,34.10
2022-11-29T17:22:01.770Z,33.27
2022-11-29T17:24:54.938Z,32.73
2022-11-29T17:27:43.614Z,31.90
2022-11-29T17:30:40.516Z,31.60
2022-11-29T17:33:38.327Z,33.80
2022-11-29T17:36:30.503Z,34.10
2022-11-29T17:39:20.190Z,34.73
2022-11-29T17:42:17.592Z,34.50
2022-11-29T17:45:10.228Z,34.33
2022-11-29T17:48:00.650Z,33.40
2022-11-29T17:51:28.832Z,34.93
2022-11-29T17:54:22.283Z,32.97
2022-11-29T17:57:10.991Z,32.27
2022-11-29T17:59:59.567Z,35.90
2022-11-29T18:02:48.227Z,34.43
2022-11-29T18:05:36.900Z,33.53
2022-11-29T18:08:33.037Z,35.17
2022-11-29T18:11:22.507Z,37.00
2022-11-29T18:14:12.195Z,36.30
2022-11-29T18:17:02.179Z,36.37
2022-11-29T18:19:57.062Z,34.03
2022-11-29T18:22:50.760Z,35.50
2022-11-29T18:25:44.470Z,35.27
2022-11-29T18:28:36.786Z,36.03
2022-11-29T18:31:29.674Z,34.87
2022-11-29T18:34:18.502Z,34.90
2022-11-29T18:37:15.275Z,32.80
2022-11-29T18:40:09.984Z,35.33
2022-11-29T18:43:01.037Z,34.53
2022-11-29T18:45:49.664Z,35.57
2022-11-29T18:48:40.533Z,35.63
2022-11-29T18:51:29.671Z,37.67
2022-11-29T18:54:19.152Z,35.80
2022-11-29T18:57:07.853Z,34.57
2022-11-29T18:59:57.793Z,35.97
2022-11-29T19:02:51.199Z,35.97
2022-11-29T19:05:41.074Z,38.10
2022-11-29T19:08:31.521Z,34.80
2022-11-29T19:11:23.163Z,35.30
2022-11-29T19:14:14.654Z,34.70
2022-11-29T19:17:09.050Z,35.27
2022-11-29T19:19:59.154Z,34.10
2022-11-29T19:22:57.528Z,36.43
2022-11-29T19:25:50.365Z,34.67
2022-11-29T19:28:41.674Z,34.07
2022-11-29T19:31:39.855Z,35.20
2022-11-29T19:34:34.054Z,38.40
2022-11-29T19:37:22.683Z,36.10
2022-11-29T19:40:11.421Z,35.43
2022-11-29T19:43:04.411Z,34.37
2022-11-29T19:45:59.603Z,36.87
2022-11-29T19:48:51.276Z,35.63
2022-11-29T19:51:44.023Z,34.10
2022-11-29T19:54:34.483Z,34.10
2022-11-29T19:57:26.733Z,34.60
2022-11-29T20:00:15.860Z,34.80
2022-11-29T20:03:08.716Z,35.83
2022-11-29T20:05:59.700Z,33.47
2022-11-29T20:08:49.676Z,35.47
2022-11-29T20:11:39.491Z,37.03
2022-11-29T20:14:28.080Z,35.00
2022-11-29T20:17:22.308Z,37.93
2022-11-29T20:20:13.108Z,37.93
2022-11-29T20:23:01.787Z,35.03
2022-11-29T20:25:57.059Z,35.47
2022-11-29T20:28:46.262Z,35.90
2022-11-29T20:31:35.665Z,34.50
2022-11-29T20:34:27.129Z,34.77
2022-11-29T20:37:38.139Z,35.97
2022-11-29T20:40:32.971Z,36.40
2022-11-29T20:43:31.142Z,35.83
2022-11-29T20:46:22.876Z,34.17
2022-11-29T20:49:16.825Z,36.47
2022-11-29T20:52:10.073Z,35.93
2022-11-29T20:55:00.123Z,35.90
2022-11-29T20:57:53.456Z,32.33
2022-11-29T21:00:45.836Z,35.83
2022-11-29T21:03:34.527Z,37.40
2022-11-29T21:06:37.263Z,34.13
2022-11-29T21:09:29.435Z,34.00
2022-11-29T21:12:22.220Z,33.97
2022-11-29T21:15:12.029Z,34.07
2022-11-29T21:18:02.418Z,36.23
2022-11-29T21:20:58.852Z,33.87
2022-11-29T21:23:53.082Z,37.27
2022-11-29T21:26:44.949Z,35.70
2022-11-29T21:29:37.911Z,36.30
2022-11-29T21:32:31.444Z,36.70
2022-11-29T21:35:33.718Z,36.10
2022-11-29T21:38:24.991Z,36.47
2022-11-29T21:41:16.640Z,37.80
2022-11-29T21:44:12.391Z,34.07
2022-11-29T21:47:04.024Z,35.60
2022-11-29T21:50:00.607Z,34.97
2022-11-29T21:52:58.438Z,34.30
2022-11-29T21:55:47.021Z,34.47
2022-11-29T21:58:38.875Z,33.07
2022-11-29T22:01:34.028Z,36.23
2022-11-29T22:04:24.051Z,36.33
2022-11-29T22:07:14.392Z,34.67
2022-11-29T22:10:13.739Z,35.00
2022-11-29T22:13:02.443Z,34.77
2022-11-29T22:15:59.128Z,34.77
2022-11-29T22:18:49.608Z,35.10
2022-11-29T22:21:48.569Z,35.20
2022-11-29T22:24:44.258Z,33.07
2022-11-29T22:27:37.243Z,34.00
2022-11-29T22:30:27.969Z,33.23
2022-11-29T22:33:19.385Z,33.67
2022-11-29T22:36:11.150Z,35.13
2022-11-29T22:38:59.857Z,33.97
2022-11-29T22:41:53.889Z,34.00
2022-11-29T22:44:47.057Z,33.47
2022-11-29T22:47:38.102Z,34.40
2022-11-29T22:50:27.800Z,34.53
2022-11-29T22:53:16.450Z,34.73
2022-11-29T22:56:05.939Z,35.83
2022-11-29T22:58:55.652Z,33.77
2022-11-29T23:01:45.707Z,34.10
2022-11-29T23:04:36.615Z,33.17
2022-11-29T23:07:25.232Z,35.10
2022-11-29T23:10:13.872Z,35.50
2022-11-29T23:13:06.381Z,36.20
2022-11-29T23:15:56.881Z,34.67
2022-11-29T23:18:50.318Z,34.60
2022-11-29T23:21:39.811Z,35.40
2022-11-29T23:24:32.200Z,35.47
2022-11-29T23:27:23.815Z,34.07
2022-11-29T23:30:19.316Z,33.57
2022-11-29T23:33:07.894Z,32.43
2022-11-29T23:36:04.394Z,33.53
2022-11-29T23:38:57.047Z,34.37
2022-11-29T23:41:46.783Z,34.20
2022-11-29T23:44:37.351Z,33.33
2022-11-29T23:47:28.559Z,34.27
2022-11-29T23:50:17.256Z,34.20
2022-11-29T23:53:13.714Z,33.30
2022-11-29T23:56:03.026Z,32.23
2022-11-29T23:58:56.433Z,35.73
